Time,TemperatureF,DewpointF,PressureIn,WindDirection,WindDirectionDegrees,WindSpeedMPH,WindSpeedGustMPH,Humidity,HourlyPrecipIn,Conditions,Clouds,dailyrainin,SoftwareType,DateUTC
2015-08-28 09:04:00,59.0,59.0,-100.00,ESE,120,0.0,0.0,100,-99.99,,,-99.99,,2015-08-28 13:04:00,
2015-08-28 09:13:00,60.0,60.0,-100.00,East,100,0.0,0.0,98,-99.99,,,-99.99,,2015-08-28 13:13:00,
2015-08-28 09:44:00,64.0,59.0,-100.00,East,85,0.0,1.0,83,-99.99,,,-99.99,,2015-08-28 13:44:00,
2015-08-28 10:04:00,65.0,58.0,-100.00,East,85,0.0,2.0,77,-99.99,,,-99.99,,2015-08-28 14:04:00,
2015-08-28 10:13:00,67.0,59.0,-100.00,East,85,0.0,2.0,78,-99.99,,,-99.99,,2015-08-28 14:13:00,
2015-08-28 10:23:00,67.0,59.0,-100.00,NE,50,0.0,3.0,74,-99.99,,,-99.99,,2015-08-28 14:23:00,
2015-08-28 10:33:00,68.0,58.0,-100.00,East,85,1.0,3.0,70,-99.99,,,-99.99,,2015-08-28 14:33:00,
2015-08-28 10:43:00,69.0,58.0,-100.00,ESE,120,2.0,4.0,69,-99.99,,,-99.99,,2015-08-28 14:43:00,
2015-08-28 10:53:00,69.0,57.0,-100.00,NE,45,1.0,5.0,68,-99.99,,,-99.99,,2015-08-28 14:53:00,
2015-08-28 11:04:00,69.0,58.0,-100.00,ENE,60,1.0,6.0,67,-99.99,,,-99.99,,2015-08-28 15:04:00,
2015-08-28 11:13:00,70.0,58.0,-100.00,East,80,1.0,5.0,66,-99.99,,,-99.99,,2015-08-28 15:13:00,
2015-08-28 11:33:00,70.0,57.0,-100.00,SW,225,2.0,6.0,63,-99.99,,,-99.99,,2015-08-28 15:33:00,
2015-08-28 11:47:00,71.0,58.0,-100.00,ESE,110,0.0,4.0,63,-99.99,,,-99.99,,2015-08-28 15:47:00,
2015-08-28 11:53:00,71.0,58.0,-100.00,South,175,2.0,6.0,63,-99.99,,,-99.99,,2015-08-28 15:53:00,
2015-08-28 12:04:00,71.0,57.0,-100.00,NE,55,2.0,6.0,61,-99.99,,,-99.99,,2015-08-28 16:04:00,
2015-08-28 12:13:00,72.0,57.0,-100.00,NE,55,2.0,6.0,58,-99.99,,,-99.99,,2015-08-28 16:13:00,
2015-08-28 12:23:00,72.0,58.0,-100.00,SSW,210,4.0,6.0,60,-99.99,,,-99.99,,2015-08-28 16:23:00,
2015-08-28 12:34:00,73.0,59.0,-100.00,ENE,65,0.0,6.0,61,-99.99,,,-99.99,,2015-08-28 16:34:00,
2015-08-28 12:44:00,73.0,56.0,-100.00,SW,220,0.0,6.0,56,-99.99,,,-99.99,,2015-08-28 16:44:00,
2015-08-28 12:54:00,73.0,58.0,-100.00,ESE,105,0.0,6.0,59,-99.99,,,-99.99,,2015-08-28 16:54:00,
2015-08-28 13:03:00,73.0,58.0,-100.00,ENE,60,0.0,6.0,58,-99.99,,,-99.99,,2015-08-28 17:03:00,
2015-08-28 13:13:00,74.0,57.0,-100.00,NE,55,1.0,6.0,55,-99.99,,,-99.99,,2015-08-28 17:13:00,
2015-08-28 13:24:00,72.0,55.0,-100.00,East,90,1.0,4.0,56,-99.99,,,-99.99,,2015-08-28 17:24:00,
2015-08-28 13:34:00,73.0,56.0,-100.00,SSW,205,3.0,4.0,54,-99.99,,,-99.99,,2015-08-28 17:34:00,